Impacts TAF Board
For situational awareness. Not to be used for flight planning purposes.
IDs:

KJAN - Jackson/Evers Intl, MS, US

Issued at 0520 UTC 24 Jan 2019
Updated at 0652 UTC 24 Jan 2019
Potential Impact None Slight Moderate High
Time0636Z 24/07Z 24/08Z 24/09Z 24/10Z 24/11Z 24/12Z 24/13Z 24/14Z 24/15Z 24/16Z 24/17Z 24/18Z 24/19Z>>
Type OBS PRVL PRVL PRVL PRVL PRVL PRVL PRVL PRVL PRVL PRVL PRVL PRVL PRVL
VIS 10 >6 >6 >6 >6 >6 >6 >6 >6 >6 >6 >6 >6 >6
CIG 15 12 25 25 -- -- -- -- -- -- -- -- -- --
Cover OVC OVC BKN BKN SKC SKC SKC SKC SKC SKC SKC SKC SKC SKC
FltCat MVFR MVFR MVFR MVFR VFR VFR VFR VFR VFR VFR VFR VFR VFR VFR
WX -- -- -- -- -- -- -- -- -- -- -- -- -- --
WDir 320 320 320 320 330 330 330 330 330 330 330 330 330 330
WSpd 10 10 8 8 7 7 7 7 7 7 7 7 7 7
WGst 15 -- -- -- -- -- -- -- -- -- -- -- -- --
Raw TAF
KJAN 240520Z 2406/2506 32010KT P6SM OVC012
  FM240800 32008KT P6SM BKN025
  FM241000 33007KT P6SM SKC
  FM250200 20003KT P6SM FEW250


Raw METAR
KJAN 240636Z AUTO 32010G15KT 10SM OVC015 01/M02 A3001 RMK AO2 T00111022 $
KJAN 240612Z AUTO 32008KT 10SM OVC014 01/M02 A3001 RMK AO2 T00111017 $
KJAN 240554Z AUTO 33009KT 10SM OVC015 02/M02 A3001 RMK AO2 SLP163 60000 T00171017 10044 20017 401830017 50010 $
KJAN 240546Z AUTO 32008KT 10SM OVC015 02/M02 A3001 RMK AO2 T00171017 $
KJAN 240454Z 30008KT 10SM OVC011 02/M01 A3003 RMK AO2 SLP168 T00171011 $
KJAN 240354Z 32011G21KT 10SM OVC011 02/M01 A2999 RMK AO2 RAB02E21 SLP157 P0000 T00221006 $
KJAN 240347Z 33009G18KT 10SM OVC010 02/00 A2998 RMK AO2 RAB02E21 P0000 T00220000 $

METAR Board
Radar Display
Forecast Discussion
For situational awareness. Not to be used for flight planning purposes.